Private Wetterstation Sandau
Wetterdaten: Mittwoch, 20.06.2012
Datum Zeit Temp. A. Feuchte A. Luftdruck Regen Wind Richtung Richtung Taupunkt Windchill
20.06.2012 00:01 18,2 C 71 % 1019,2 hPa 0,0 l/m 4,0 km/h (1 Bft) NO 45 12,9 C 18,2 C
20.06.2012 00:06 18,2 C 71 % 1019,3 hPa 0,0 l/m 2,5 km/h (1 Bft) O-NO 67 12,9 C 18,2 C
20.06.2012 00:11 18,2 C 71 % 1019,1 hPa 0,0 l/m 0,0 km/h (0 Bft) O-NO 67 12,9 C 18,2 C
20.06.2012 00:16 18,1 C 71 % 1019,2 hPa 0,0 l/m 4,7 km/h (1 Bft) O-NO 67 12,8 C 18,1 C
20.06.2012 00:21 18,1 C 72 % 1019,2 hPa 0,0 l/m 4,3 km/h (1 Bft) O-NO 67 13,0 C 18,1 C
20.06.2012 00:26 17,9 C 72 % 1019,3 hPa 0,0 l/m 4,0 km/h (1 Bft) O 90 12,8 C 17,9 C
20.06.2012 00:31 17,9 C 72 % 1019,5 hPa 0,0 l/m 2,9 km/h (1 Bft) O-SO 112 12,8 C 17,9 C
20.06.2012 00:36 17,9 C 73 % 1019,5 hPa 0,0 l/m 6,1 km/h (2 Bft) O-NO 67 13,0 C 17,9 C
20.06.2012 00:41 17,8 C 73 % 1019,2 hPa 0,0 l/m 6,1 km/h (2 Bft) O-SO 112 12,9 C 17,8 C
20.06.2012 00:46 17,8 C 73 % 1019,3 hPa 0,0 l/m 5,0 km/h (1 Bft) O-NO 67 12,9 C 17,8 C
20.06.2012 00:51 17,7 C 73 % 1019,3 hPa 0,0 l/m 2,9 km/h (1 Bft) O-NO 67 12,8 C 17,7 C
20.06.2012 00:56 17,7 C 73 % 1019,3 hPa 0,0 l/m 1,4 km/h (1 Bft) O 90 12,8 C 17,7 C
20.06.2012 01:01 17,8 C 73 % 1019,4 hPa 0,0 l/m 4,0 km/h (1 Bft) O 90 12,9 C 17,8 C
20.06.2012 01:06 17,8 C 73 % 1019,4 hPa 0,0 l/m 2,9 km/h (1 Bft) O 90 12,9 C 17,8 C
20.06.2012 01:11 17,8 C 73 % 1019,5 hPa 0,0 l/m 0,0 km/h (0 Bft) O-NO 67 12,9 C 17,8 C
20.06.2012 01:16 17,8 C 74 % 1019,4 hPa 0,0 l/m 2,2 km/h (1 Bft) O 90 13,1 C 17,8 C
20.06.2012 01:21 17,8 C 74 % 1019,4 hPa 0,0 l/m 3,6 km/h (1 Bft) SO 135 13,1 C 17,8 C
20.06.2012 01:26 17,8 C 74 % 1019,5 hPa 0,0 l/m 1,4 km/h (1 Bft) O 90 13,1 C 17,8 C
20.06.2012 01:31 17,8 C 74 % 1019,5 hPa 0,0 l/m 4,7 km/h (1 Bft) O 90 13,1 C 17,8 C
20.06.2012 01:36 17,6 C 74 % 1019,4 hPa 0,0 l/m 6,5 km/h (2 Bft) O 90 12,9 C 17,6 C
20.06.2012 01:41 17,6 C 75 % 1019,4 hPa 0,0 l/m 5,8 km/h (2 Bft) O-NO 67 13,1 C 17,6 C
20.06.2012 01:46 17,5 C 75 % 1019,3 hPa 0,0 l/m 5,4 km/h (1 Bft) O-NO 67 13,0 C 17,5 C
20.06.2012 01:51 17,4 C 76 % 1019,1 hPa 0,0 l/m 5,8 km/h (2 Bft) O-SO 112 13,1 C 17,4 C
20.06.2012 01:56 17,3 C 76 % 1018,9 hPa 0,0 l/m 8,6 km/h (2 Bft) O-NO 67 13,0 C 17,3 C
20.06.2012 02:01 17,2 C 77 % 1018,9 hPa 0,0 l/m 5,0 km/h (1 Bft) O 90 13,1 C 17,2 C
20.06.2012 02:06 17,1 C 77 % 1018,8 hPa 0,0 l/m 7,6 km/h (2 Bft) O 90 13,0 C 17,1 C
20.06.2012 02:11 17,1 C 77 % 1018,7 hPa 0,0 l/m 5,0 km/h (1 Bft) O 90 13,0 C 17,1 C
20.06.2012 02:16 17,1 C 77 % 1018,9 hPa 0,0 l/m 8,3 km/h (2 Bft) O 90 13,0 C 17,1 C
20.06.2012 02:21 17,1 C 78 % 1019,0 hPa 0,0 l/m 4,0 km/h (1 Bft) S-SO 157 13,2 C 17,1 C
20.06.2012 02:26 17,1 C 78 % 1018,9 hPa 0,0 l/m 4,3 km/h (1 Bft) O-NO 67 13,2 C 17,1 C
20.06.2012 02:31 17,1 C 78 % 1018,7 hPa 0,0 l/m 10,8 km/h (2 Bft) O 90 13,2 C 17,1 C
20.06.2012 02:36 17,1 C 78 % 1018,7 hPa 0,0 l/m 4,0 km/h (1 Bft) O 90 13,2 C 17,1 C
20.06.2012 02:41 17,0 C 79 % 1018,7 hPa 0,0 l/m 6,1 km/h (2 Bft) O 90 13,3 C 17,0 C
20.06.2012 02:46 16,9 C 79 % 1018,7 hPa 0,0 l/m 6,1 km/h (2 Bft) O-SO 112 13,2 C 16,9 C
20.06.2012 02:51 16,9 C 80 % 1018,7 hPa 0,0 l/m 10,1 km/h (2 Bft) O 90 13,4 C 16,9 C
20.06.2012 02:56 16,9 C 80 % 1018,5 hPa 0,0 l/m 5,4 km/h (1 Bft) O-SO 112 13,4 C 16,9 C
20.06.2012 03:01 16,8 C 81 % 1018,5 hPa 0,0 l/m 14,8 km/h (3 Bft) O-SO 112 13,5 C 16,8 C
20.06.2012 03:06 16,8 C 81 % 1018,5 hPa 0,0 l/m 4,0 km/h (1 Bft) SO 135 13,5 C 16,8 C
20.06.2012 03:11 16,8 C 81 % 1018,5 hPa 0,0 l/m 4,0 km/h (1 Bft) O 90 13,5 C 16,8 C
20.06.2012 03:16 16,8 C 81 % 1018,5 hPa 0,0 l/m 2,9 km/h (1 Bft) O-SO 112 13,5 C 16,8 C
20.06.2012 03:21 16,8 C 81 % 1018,5 hPa 0,0 l/m 7,9 km/h (2 Bft) SO 135 13,5 C 16,8 C
20.06.2012 03:26 16,8 C 81 % 1018,5 hPa 0,0 l/m 3,2 km/h (1 Bft) O-SO 112 13,5 C 16,8 C
20.06.2012 03:31 16,8 C 81 % 1018,3 hPa 0,0 l/m 2,2 km/h (1 Bft) SO 135 13,5 C 16,8 C
20.06.2012 03:36 16,8 C 82 % 1018,3 hPa 0,0 l/m 3,6 km/h (1 Bft) SO 135 13,7 C 16,8 C
20.06.2012 03:41 16,8 C 82 % 1018,2 hPa 0,0 l/m 5,0 km/h (1 Bft) O 90 13,7 C 16,8 C
20.06.2012 03:46 16,8 C 81 % 1018,2 hPa 0,0 l/m 5,8 km/h (2 Bft) O 90 13,5 C 16,8 C
20.06.2012 03:51 16,6 C 82 % 1018,1 hPa 0,0 l/m 2,5 km/h (1 Bft) O-NO 67 13,5 C 16,6 C
20.06.2012 03:56 16,6 C 82 % 1018,0 hPa 0,0 l/m 4,7 km/h (1 Bft) O 90 13,5 C 16,6 C
20.06.2012 04:01 16,6 C 82 % 1017,9 hPa 0,0 l/m 4,3 km/h (1 Bft) O-NO 67 13,5 C 16,6 C
20.06.2012 04:06 16,5 C 82 % 1017,9 hPa 0,0 l/m 6,5 km/h (2 Bft) O-SO 112 13,4 C 16,5 C
20.06.2012 04:11 16,4 C 83 % 1017,8 hPa 0,0 l/m 6,5 km/h (2 Bft) O-NO 67 13,5 C 16,4 C
20.06.2012 04:16 16,4 C 83 % 1017,6 hPa 0,0 l/m 3,6 km/h (1 Bft) O-SO 112 13,5 C 16,4 C
20.06.2012 04:21 16,3 C 83 % 1017,7 hPa 0,0 l/m 5,8 km/h (2 Bft) O-NO 67 13,4 C 16,3 C
20.06.2012 04:26 16,2 C 83 % 1017,7 hPa 0,0 l/m 2,5 km/h (1 Bft) O-NO 67 13,3 C 16,2 C
20.06.2012 04:31 16,2 C 83 % 1017,7 hPa 0,0 l/m 3,2 km/h (1 Bft) O-NO 67 13,3 C 16,2 C
20.06.2012 04:36 16,2 C 83 % 1017,4 hPa 0,0 l/m 2,9 km/h (1 Bft) O 90 13,3 C 16,2 C
20.06.2012 04:41 16,1 C 83 % 1017,3 hPa 0,0 l/m 6,8 km/h (2 Bft) O-SO 112 13,2 C 16,1 C
20.06.2012 04:46 16,1 C 83 % 1017,3 hPa 0,0 l/m 3,6 km/h (1 Bft) O 90 13,2 C 16,1 C
20.06.2012 04:51 16,1 C 83 % 1017,1 hPa 0,0 l/m 5,4 km/h (1 Bft) O 90 13,2 C 16,1 C
20.06.2012 04:56 15,9 C 84 % 1017,1 hPa 0,0 l/m 10,1 km/h (2 Bft) O 90 13,2 C 15,9 C
20.06.2012 05:01 15,9 C 84 % 1017,2 hPa 0,0 l/m 5,8 km/h (2 Bft) O 90 13,2 C 15,9 C
20.06.2012 05:06 15,9 C 84 % 1017,1 hPa 0,0 l/m 9,7 km/h (2 Bft) O-NO 67 13,2 C 15,9 C
20.06.2012 05:11 15,9 C 84 % 1017,3 hPa 0,0 l/m 3,2 km/h (1 Bft) O 90 13,2 C 15,9 C
20.06.2012 05:16 15,9 C 84 % 1017,2 hPa 0,0 l/m 8,6 km/h (2 Bft) O 90 13,2 C 15,9 C
20.06.2012 05:21 15,9 C 84 % 1017,2 hPa 0,0 l/m 4,0 km/h (1 Bft) O 90 13,2 C 15,9 C
20.06.2012 05:26 15,9 C 84 % 1017,2 hPa 0,0 l/m 4,0 km/h (1 Bft) O-NO 67 13,2 C 15,9 C
20.06.2012 05:31 15,9 C 84 % 1017,3 hPa 0,0 l/m 2,9 km/h (1 Bft) O-NO 67 13,2 C 15,9 C
20.06.2012 05:36 15,9 C 84 % 1017,2 hPa 0,0 l/m 2,9 km/h (1 Bft) O-NO 67 13,2 C 15,9 C
20.06.2012 05:41 15,9 C 84 % 1017,2 hPa 0,0 l/m 2,5 km/h (1 Bft) O-NO 67 13,2 C 15,9 C
20.06.2012 05:46 15,9 C 84 % 1017,2 hPa 0,0 l/m 9,4 km/h (2 Bft) O-NO 67 13,2 C 15,9 C
20.06.2012 05:51 15,9 C 84 % 1017,4 hPa 0,0 l/m 2,9 km/h (1 Bft) O-NO 67 13,2 C 15,9 C
20.06.2012 05:56 15,9 C 84 % 1017,3 hPa 0,0 l/m 2,5 km/h (1 Bft) SO 135 13,2 C 15,9 C
20.06.2012 06:01 15,9 C 85 % 1017,4 hPa 0,0 l/m 7,9 km/h (2 Bft) O-NO 67 13,4 C 15,9 C
20.06.2012 06:06 15,9 C 85 % 1017,4 hPa 0,0 l/m 1,8 km/h (1 Bft) O-NO 67 13,4 C 15,9 C
20.06.2012 06:11 15,9 C 85 % 1017,2 hPa 0,0 l/m 5,0 km/h (1 Bft) O 90 13,4 C 15,9 C
20.06.2012 06:16 15,9 C 85 % 1017,3 hPa 0,0 l/m 0,0 km/h (0 Bft) O 90 13,4 C 15,9 C
20.06.2012 06:21 15,9 C 85 % 1017,3 hPa 0,0 l/m 2,2 km/h (1 Bft) NO 45 13,4 C 15,9 C
20.06.2012 06:26 15,9 C 85 % 1017,3 hPa 0,0 l/m 3,6 km/h (1 Bft) O 90 13,4 C 15,9 C
20.06.2012 06:31 15,9 C 85 % 1017,4 hPa 0,0 l/m 4,3 km/h (1 Bft) O 90 13,4 C 15,9 C
20.06.2012 06:36 15,9 C 86 % 1017,2 hPa 0,0 l/m 9,7 km/h (2 Bft) O 90 13,6 C 15,9 C
20.06.2012 06:41 15,9 C 86 % 1017,3 hPa 0,0 l/m 2,5 km/h (1 Bft) O-NO 67 13,6 C 15,9 C
20.06.2012 06:46 15,9 C 86 % 1017,4 hPa 0,0 l/m 4,7 km/h (1 Bft) O 90 13,6 C 15,9 C
20.06.2012 06:51 16,0 C 86 % 1017,1 hPa 0,0 l/m 3,2 km/h (1 Bft) O 90 13,7 C 16,0 C
20.06.2012 06:56 16,1 C 86 % 1017,1 hPa 0,0 l/m 3,2 km/h (1 Bft) O 90 13,8 C 16,1 C
20.06.2012 07:01 16,1 C 86 % 1017,1 hPa 0,0 l/m 0,0 km/h (0 Bft) O 90 13,8 C 16,1 C
20.06.2012 07:06 16,1 C 86 % 1017,1 hPa 0,5 l/m 2,2 km/h (1 Bft) O 90 13,8 C 16,1 C
20.06.2012 07:11 16,1 C 86 % 1017,0 hPa 0,0 l/m 5,4 km/h (1 Bft) O 90 13,8 C 16,1 C
20.06.2012 07:16 16,1 C 86 % 1017,0 hPa 0,0 l/m 2,5 km/h (1 Bft) O-SO 112 13,8 C 16,1 C
20.06.2012 07:21 16,1 C 86 % 1016,9 hPa 0,0 l/m 8,3 km/h (2 Bft) O-NO 67 13,8 C 16,1 C
20.06.2012 07:26 16,1 C 86 % 1016,9 hPa 0,0 l/m 5,0 km/h (1 Bft) O-SO 112 13,8 C 16,1 C
20.06.2012 07:31 16,1 C 86 % 1016,9 hPa 0,0 l/m 8,6 km/h (2 Bft) O-SO 112 13,8 C 16,1 C
20.06.2012 07:36 16,1 C 86 % 1017,0 hPa 0,0 l/m 7,9 km/h (2 Bft) O-NO 67 13,8 C 16,1 C
20.06.2012 07:41 16,1 C 86 % 1016,9 hPa 0,5 l/m 5,0 km/h (1 Bft) O 90 13,8 C 16,1 C
20.06.2012 07:46 16,1 C 86 % 1016,7 hPa 0,0 l/m 6,1 km/h (2 Bft) O-NO 67 13,8 C 16,1 C
20.06.2012 07:51 16,1 C 86 % 1016,8 hPa 0,0 l/m 5,0 km/h (1 Bft) O-NO 67 13,8 C 16,1 C
20.06.2012 07:56 16,1 C 86 % 1016,8 hPa 0,0 l/m 3,6 km/h (1 Bft) O-NO 67 13,8 C 16,1 C
20.06.2012 08:01 16,1 C 86 % 1016,8 hPa 0,0 l/m 4,7 km/h (1 Bft) O 90 13,8 C 16,1 C
20.06.2012 08:06 15,9 C 87 % 1016,8 hPa 0,0 l/m 6,8 km/h (2 Bft) O 90 13,7 C 15,9 C
20.06.2012 08:11 15,9 C 87 % 1016,9 hPa 0,0 l/m 9,4 km/h (2 Bft) O 90 13,7 C 15,9 C
20.06.2012 08:16 15,9 C 87 % 1016,9 hPa 0,0 l/m 4,3 km/h (1 Bft) NO 45 13,7 C 15,9 C
20.06.2012 08:21 15,9 C 87 % 1017,1 hPa 0,0 l/m 7,9 km/h (2 Bft) O 90 13,7 C 15,9 C
20.06.2012 08:26 15,9 C 87 % 1017,1 hPa 0,0 l/m 4,0 km/h (1 Bft) O-NO 67 13,7 C 15,9 C
20.06.2012 08:31 15,9 C 87 % 1017,3 hPa 0,0 l/m 6,1 km/h (2 Bft) O-NO 67 13,7 C 15,9 C
20.06.2012 08:36 15,9 C 87 % 1017,3 hPa 0,0 l/m 7,2 km/h (2 Bft) O 90 13,7 C 15,9 C
20.06.2012 08:41 15,9 C 87 % 1017,4 hPa 0,5 l/m 7,6 km/h (2 Bft) N-NO 22 13,7 C 15,9 C
20.06.2012 08:46 15,9 C 87 % 1017,2 hPa 0,0 l/m 13,0 km/h (3 Bft) O 90 13,7 C 15,9 C
20.06.2012 08:51 15,8 C 87 % 1017,2 hPa 0,0 l/m 6,1 km/h (2 Bft) O-NO 67 13,6 C 15,8 C
20.06.2012 08:56 15,8 C 87 % 1017,2 hPa 0,0 l/m 6,1 km/h (2 Bft) O-SO 112 13,6 C 15,8 C
20.06.2012 09:01 15,8 C 87 % 1017,4 hPa 0,0 l/m 5,8 km/h (2 Bft) O-NO 67 13,6 C 15,8 C
20.06.2012 09:06 15,8 C 87 % 1017,4 hPa 0,0 l/m 7,2 km/h (2 Bft) O-NO 67 13,6 C 15,8 C
20.06.2012 09:11 15,9 C 87 % 1017,3 hPa 0,0 l/m 5,4 km/h (1 Bft) O-NO 67 13,7 C 15,9 C
20.06.2012 09:16 15,9 C 87 % 1017,2 hPa 0,0 l/m 5,0 km/h (1 Bft) O-NO 67 13,7 C 15,9 C
20.06.2012 09:21 15,9 C 88 % 1017,4 hPa 0,0 l/m 5,8 km/h (2 Bft) O-NO 67 13,9 C 15,9 C
20.06.2012 09:26 16,0 C 88 % 1017,3 hPa 0,0 l/m 2,9 km/h (1 Bft) O-SO 112 14,0 C 16,0 C
20.06.2012 09:31 16,1 C 87 % 1017,2 hPa 0,0 l/m 11,2 km/h (2 Bft) O 90 13,9 C 16,1 C
20.06.2012 09:36 16,1 C 87 % 1017,0 hPa 0,0 l/m 7,9 km/h (2 Bft) O-NO 67 13,9 C 16,1 C
20.06.2012 09:41 16,1 C 87 % 1017,3 hPa 0,0 l/m 14,4 km/h (3 Bft) O 90 13,9 C 16,1 C
20.06.2012 09:46 16,1 C 87 % 1017,3 hPa 0,0 l/m 14,4 km/h (3 Bft) O 90 13,9 C 16,1 C
20.06.2012 09:51 16,1 C 87 % 1017,1 hPa 0,0 l/m 5,4 km/h (1 Bft) O-NO 67 13,9 C 16,1 C
20.06.2012 09:56 16,2 C 87 % 1017,2 hPa 0,0 l/m 10,8 km/h (2 Bft) O-NO 67 14,0 C 16,2 C
20.06.2012 10:01 16,1 C 87 % 1017,1 hPa 0,0 l/m 4,3 km/h (1 Bft) O-NO 67 13,9 C 16,1 C
20.06.2012 10:06 16,1 C 87 % 1017,0 hPa 0,0 l/m 10,1 km/h (2 Bft) O 90 13,9 C 16,1 C
20.06.2012 10:11 16,1 C 87 % 1017,0 hPa 0,0 l/m 5,8 km/h (2 Bft) O-NO 67 13,9 C 16,1 C
20.06.2012 10:16 16,1 C 87 % 1017,1 hPa 0,0 l/m 4,0 km/h (1 Bft) O-NO 67 13,9 C 16,1 C
20.06.2012 10:21 16,2 C 87 % 1017,0 hPa 0,0 l/m 6,5 km/h (2 Bft) O-NO 67 14,0 C 16,2 C
20.06.2012 10:26 16,2 C 87 % 1017,1 hPa 0,0 l/m 9,7 km/h (2 Bft) O 90 14,0 C 16,2 C
20.06.2012 10:31 16,2 C 87 % 1017,2 hPa 0,0 l/m 7,6 km/h (2 Bft) O-SO 112 14,0 C 16,2 C
20.06.2012 10:36 16,2 C 87 % 1017,2 hPa 0,0 l/m 8,6 km/h (2 Bft) O-NO 67 14,0 C 16,2 C
20.06.2012 10:41 16,2 C 87 % 1017,2 hPa 0,0 l/m 5,8 km/h (2 Bft) O 90 14,0 C 16,2 C
20.06.2012 10:46 16,2 C 87 % 1017,1 hPa 0,0 l/m 5,4 km/h (1 Bft) O-NO 67 14,0 C 16,2 C
20.06.2012 10:51 16,1 C 87 % 1017,3 hPa 0,0 l/m 11,9 km/h (2 Bft) O-NO 67 13,9 C 16,1 C
20.06.2012 10:56 16,1 C 88 % 1017,3 hPa 0,0 l/m 10,4 km/h (2 Bft) O-NO 67 14,1 C 16,1 C
20.06.2012 11:01 16,1 C 88 % 1017,3 hPa 0,0 l/m 6,5 km/h (2 Bft) NO 45 14,1 C 16,1 C
20.06.2012 11:06 16,1 C 88 % 1017,3 hPa 0,5 l/m 7,6 km/h (2 Bft) O 90 14,1 C 16,1 C
20.06.2012 11:11 16,1 C 88 % 1017,3 hPa 0,0 l/m 14,0 km/h (3 Bft) O-NO 67 14,1 C 16,1 C
20.06.2012 11:16 16,1 C 88 % 1017,2 hPa 0,0 l/m 7,2 km/h (2 Bft) O 90 14,1 C 16,1 C
20.06.2012 11:21 16,1 C 88 % 1017,2 hPa 0,0 l/m 10,1 km/h (2 Bft) O 90 14,1 C 16,1 C
20.06.2012 11:26 16,1 C 88 % 1017,2 hPa 0,0 l/m 5,4 km/h (1 Bft) O-NO 67 14,1 C 16,1 C
20.06.2012 11:31 16,1 C 88 % 1017,2 hPa 0,0 l/m 3,6 km/h (1 Bft) O 90 14,1 C 16,1 C
20.06.2012 11:36 16,1 C 88 % 1017,3 hPa 0,0 l/m 4,0 km/h (1 Bft) O-NO 67 14,1 C 16,1 C
20.06.2012 11:41 16,1 C 88 % 1017,3 hPa 0,5 l/m 11,5 km/h (2 Bft) O-NO 67 14,1 C 16,1 C
20.06.2012 11:46 16,1 C 88 % 1017,3 hPa 0,0 l/m 13,3 km/h (3 Bft) O-NO 67 14,1 C 16,1 C
20.06.2012 11:51 16,1 C 88 % 1017,2 hPa 0,0 l/m 6,1 km/h (2 Bft) O 90 14,1 C 16,1 C
20.06.2012 11:56 16,1 C 88 % 1017,3 hPa 0,0 l/m 5,8 km/h (2 Bft) O-NO 67 14,1 C 16,1 C
20.06.2012 12:01 16,0 C 89 % 1017,3 hPa 0,5 l/m 6,8 km/h (2 Bft) O-NO 67 14,2 C 16,0 C
20.06.2012 12:06 16,0 C 89 % 1017,3 hPa 0,0 l/m 3,2 km/h (1 Bft) O-NO 67 14,2 C 16,0 C
20.06.2012 12:11 15,9 C 89 % 1017,2 hPa 0,0 l/m 10,4 km/h (2 Bft) O-NO 67 14,1 C 15,9 C
20.06.2012 12:16 15,9 C 89 % 1017,3 hPa 0,0 l/m 11,9 km/h (2 Bft) O-NO 67 14,1 C 15,9 C
20.06.2012 12:21 15,9 C 89 % 1017,3 hPa 0,0 l/m 13,7 km/h (3 Bft) O 90 14,1 C 15,9 C
20.06.2012 12:26 15,9 C 89 % 1017,3 hPa 0,5 l/m 6,5 km/h (2 Bft) O-NO 67 14,1 C 15,9 C
20.06.2012 12:31 15,9 C 89 % 1017,2 hPa 0,0 l/m 8,6 km/h (2 Bft) O-NO 67 14,1 C 15,9 C
20.06.2012 12:36 15,9 C 89 % 1017,4 hPa 0,5 l/m 8,3 km/h (2 Bft) O-NO 67 14,1 C 15,9 C
20.06.2012 12:41 15,9 C 89 % 1017,2 hPa 0,0 l/m 14,4 km/h (3 Bft) O 90 14,1 C 15,9 C
20.06.2012 12:46 15,9 C 89 % 1017,2 hPa 0,0 l/m 5,8 km/h (2 Bft) O-NO 67 14,1 C 15,9 C
20.06.2012 12:51 15,9 C 89 % 1017,2 hPa 0,5 l/m 4,3 km/h (1 Bft) O-NO 67 14,1 C 15,9 C
20.06.2012 12:56 15,9 C 89 % 1017,2 hPa 0,0 l/m 5,8 km/h (2 Bft) O-NO 67 14,1 C 15,9 C
20.06.2012 13:01 15,9 C 89 % 1017,1 hPa 0,5 l/m 7,6 km/h (2 Bft) O-NO 67 14,1 C 15,9 C
20.06.2012 13:06 15,9 C 89 % 1017,2 hPa 0,0 l/m 6,5 km/h (2 Bft) O-SO 112 14,1 C 15,9 C
20.06.2012 13:11 15,9 C 89 % 1017,2 hPa 0,0 l/m 9,0 km/h (2 Bft) O-NO 67 14,1 C 15,9 C
20.06.2012 13:16 15,9 C 89 % 1017,2 hPa 0,5 l/m 14,8 km/h (3 Bft) O-NO 67 14,1 C 15,9 C
20.06.2012 13:21 15,9 C 89 % 1017,1 hPa 0,0 l/m 11,5 km/h (2 Bft) O 90 14,1 C 15,9 C
20.06.2012 13:26 15,9 C 89 % 1017,0 hPa 0,0 l/m 13,0 km/h (3 Bft) O 90 14,1 C 15,9 C
20.06.2012 13:31 15,9 C 89 % 1017,0 hPa 0,0 l/m 8,3 km/h (2 Bft) O-SO 112 14,1 C 15,9 C
20.06.2012 13:36 15,9 C 89 % 1017,1 hPa 0,0 l/m 10,8 km/h (2 Bft) O-NO 67 14,1 C 15,9 C
20.06.2012 13:41 15,9 C 89 % 1017,0 hPa 0,0 l/m 2,2 km/h (1 Bft) O-NO 67 14,1 C 15,9 C
20.06.2012 13:46 15,9 C 89 % 1016,9 hPa 0,5 l/m 13,3 km/h (3 Bft) O 90 14,1 C 15,9 C
20.06.2012 13:51 16,1 C 89 % 1016,9 hPa 0,0 l/m 7,2 km/h (2 Bft) O 90 14,3 C 16,1 C
20.06.2012 13:56 16,1 C 89 % 1016,9 hPa 0,0 l/m 8,6 km/h (2 Bft) O-NO 67 14,3 C 16,1 C
20.06.2012 14:01 16,1 C 89 % 1016,8 hPa 0,5 l/m 6,8 km/h (2 Bft) O-NO 67 14,3 C 16,1 C
20.06.2012 14:06 16,2 C 89 % 1016,8 hPa 0,0 l/m 7,2 km/h (2 Bft) O 90 14,4 C 16,2 C
20.06.2012 14:11 16,2 C 89 % 1016,9 hPa 0,0 l/m 6,5 km/h (2 Bft) O 90 14,4 C 16,2 C
20.06.2012 14:16 16,1 C 88 % 1016,8 hPa 0,0 l/m 6,8 km/h (2 Bft) SO 135 14,1 C 16,1 C
20.06.2012 14:21 16,1 C 88 % 1016,8 hPa 0,0 l/m 5,8 km/h (2 Bft) O-NO 67 14,1 C 16,1 C
20.06.2012 14:26 16,1 C 88 % 1016,7 hPa 0,0 l/m 8,6 km/h (2 Bft) N-NO 22 14,1 C 16,1 C
20.06.2012 14:31 16,2 C 88 % 1016,7 hPa 0,0 l/m 4,7 km/h (1 Bft) O 90 14,2 C 16,2 C
20.06.2012 14:36 16,2 C 88 % 1016,6 hPa 0,0 l/m 8,6 km/h (2 Bft) O-NO 67 14,2 C 16,2 C
20.06.2012 14:41 16,2 C 88 % 1016,6 hPa 0,0 l/m 12,2 km/h (2 Bft) O-SO 112 14,2 C 16,2 C
20.06.2012 14:46 16,2 C 88 % 1016,5 hPa 0,0 l/m 5,4 km/h (1 Bft) S-SO 157 14,2 C 16,2 C
20.06.2012 14:51 16,2 C 88 % 1016,6 hPa 0,0 l/m 15,8 km/h (3 Bft) O 90 14,2 C 16,2 C
20.06.2012 14:56 16,2 C 87 % 1016,5 hPa 0,0 l/m 7,2 km/h (2 Bft) O-SO 112 14,0 C 16,2 C
20.06.2012 15:01 16,2 C 87 % 1016,6 hPa 0,0 l/m 8,3 km/h (2 Bft) O 90 14,0 C 16,2 C
20.06.2012 15:06 16,2 C 88 % 1016,5 hPa 0,0 l/m 6,8 km/h (2 Bft) O-NO 67 14,2 C 16,2 C
20.06.2012 15:11 16,2 C 87 % 1016,7 hPa 0,0 l/m 7,2 km/h (2 Bft) NO 45 14,0 C 16,2 C
20.06.2012 15:16 16,3 C 87 % 1016,6 hPa 0,0 l/m 4,0 km/h (1 Bft) O 90 14,1 C 16,3 C
20.06.2012 15:21 16,3 C 87 % 1016,6 hPa 0,0 l/m 6,1 km/h (2 Bft) O-NO 67 14,1 C 16,3 C
20.06.2012 15:26 16,3 C 87 % 1016,4 hPa 0,0 l/m 13,7 km/h (3 Bft) O-NO 67 14,1 C 16,3 C
20.06.2012 15:31 16,3 C 87 % 1016,6 hPa 0,0 l/m 4,7 km/h (1 Bft) O 90 14,1 C 16,3 C
20.06.2012 15:36 16,3 C 87 % 1016,5 hPa 0,0 l/m 7,6 km/h (2 Bft) O 90 14,1 C 16,3 C
20.06.2012 15:41 16,3 C 87 % 1016,4 hPa 0,0 l/m 5,0 km/h (1 Bft) O-NO 67 14,1 C 16,3 C
20.06.2012 15:46 16,3 C 87 % 1016,4 hPa 0,5 l/m 8,3 km/h (2 Bft) O-NO 67 14,1 C 16,3 C
20.06.2012 15:51 16,3 C 87 % 1016,7 hPa 0,0 l/m 8,3 km/h (2 Bft) O 90 14,1 C 16,3 C
20.06.2012 15:56 16,2 C 87 % 1016,7 hPa 0,0 l/m 3,2 km/h (1 Bft) SO 135 14,0 C 16,2 C
20.06.2012 16:01 16,2 C 87 % 1016,7 hPa 0,0 l/m 11,2 km/h (2 Bft) O-NO 67 14,0 C 16,2 C
20.06.2012 16:06 16,1 C 87 % 1016,7 hPa 0,0 l/m 7,6 km/h (2 Bft) O-NO 67 13,9 C 16,1 C
20.06.2012 16:11 16,1 C 87 % 1016,7 hPa 0,0 l/m 11,2 km/h (2 Bft) O-NO 67 13,9 C 16,1 C
20.06.2012 16:16 15,9 C 87 % 1016,6 hPa 0,0 l/m 10,1 km/h (2 Bft) O-NO 67 13,7 C 15,9 C
20.06.2012 16:21 15,9 C 88 % 1016,5 hPa 0,5 l/m 10,4 km/h (2 Bft) O-SO 112 13,9 C 15,9 C
20.06.2012 16:26 15,9 C 88 % 1016,4 hPa 0,0 l/m 5,0 km/h (1 Bft) O-NO 67 13,9 C 15,9 C
20.06.2012 16:31 15,9 C 88 % 1016,5 hPa 0,0 l/m 6,1 km/h (2 Bft) O-NO 67 13,9 C 15,9 C
20.06.2012 16:36 15,9 C 88 % 1016,4 hPa 0,5 l/m 14,0 km/h (3 Bft) O 90 13,9 C 15,9 C
20.06.2012 16:41 15,9 C 88 % 1016,5 hPa 0,0 l/m 8,3 km/h (2 Bft) O 90 13,9 C 15,9 C
20.06.2012 16:46 15,9 C 88 % 1016,5 hPa 0,0 l/m 5,0 km/h (1 Bft) O 90 13,9 C 15,9 C
20.06.2012 16:51 15,9 C 89 % 1016,4 hPa 0,0 l/m 4,0 km/h (1 Bft) O-NO 67 14,1 C 15,9 C
20.06.2012 16:56 15,9 C 89 % 1016,6 hPa 0,0 l/m 14,8 km/h (3 Bft) O-NO 67 14,1 C 15,9 C
20.06.2012 17:01 15,8 C 89 % 1016,4 hPa 0,5 l/m 7,9 km/h (2 Bft) NO 45 14,0 C 15,8 C
20.06.2012 17:06 15,8 C 89 % 1016,5 hPa 0,0 l/m 3,6 km/h (1 Bft) N-NO 22 14,0 C 15,8 C
20.06.2012 17:11 15,8 C 89 % 1016,4 hPa 0,0 l/m 7,9 km/h (2 Bft) O 90 14,0 C 15,8 C
20.06.2012 17:16 15,8 C 89 % 1016,6 hPa 0,0 l/m 5,8 km/h (2 Bft) O-NO 67 14,0 C 15,8 C
20.06.2012 17:21 15,8 C 89 % 1016,7 hPa 0,0 l/m 10,4 km/h (2 Bft) O-NO 67 14,0 C 15,8 C
20.06.2012 17:26 15,7 C 89 % 1016,5 hPa 0,0 l/m 8,6 km/h (2 Bft) SO 135 13,9 C 15,7 C
20.06.2012 17:31 15,7 C 88 % 1016,6 hPa 0,0 l/m 4,0 km/h (1 Bft) O 90 13,7 C 15,7 C
20.06.2012 17:36 15,7 C 88 % 1016,5 hPa 0,0 l/m 1,8 km/h (1 Bft) O-NO 67 13,7 C 15,7 C
20.06.2012 17:41 15,8 C 88 % 1016,6 hPa 0,0 l/m 0,0 km/h (0 Bft) O-NO 67 13,8 C 15,8 C
20.06.2012 17:46 15,7 C 89 % 1016,5 hPa 0,0 l/m 14,8 km/h (3 Bft) O 90 13,9 C 15,7 C
20.06.2012 17:51 15,6 C 89 % 1016,6 hPa 0,0 l/m 11,9 km/h (2 Bft) O-NO 67 13,8 C 15,6 C
20.06.2012 17:56 15,6 C 89 % 1016,6 hPa 0,0 l/m 9,7 km/h (2 Bft) NO 45 13,8 C 15,6 C
20.06.2012 18:01 15,6 C 89 % 1016,5 hPa 0,0 l/m 5,4 km/h (1 Bft) O 90 13,8 C 15,6 C
20.06.2012 18:06 15,6 C 89 % 1016,6 hPa 0,0 l/m 5,8 km/h (2 Bft) O-NO 67 13,8 C 15,6 C
20.06.2012 18:11 15,6 C 89 % 1016,5 hPa 0,0 l/m 2,9 km/h (1 Bft) O 90 13,8 C 15,6 C
20.06.2012 18:16 15,6 C 89 % 1016,7 hPa 0,0 l/m 17,3 km/h (3 Bft) SO 135 13,8 C 15,6 C
20.06.2012 18:21 15,5 C 88 % 1016,6 hPa 0,0 l/m 13,0 km/h (3 Bft) O 90 13,5 C 15,5 C
20.06.2012 18:26 15,4 C 88 % 1016,6 hPa 0,5 l/m 9,4 km/h (2 Bft) O 90 13,4 C 15,4 C
20.06.2012 18:31 15,3 C 88 % 1016,5 hPa 0,0 l/m 8,6 km/h (2 Bft) O 90 13,3 C 15,3 C
20.06.2012 18:36 15,3 C 88 % 1016,4 hPa 0,0 l/m 10,8 km/h (2 Bft) O-SO 112 13,3 C 15,3 C
20.06.2012 18:41 15,2 C 88 % 1016,4 hPa 0,0 l/m 19,4 km/h (3 Bft) O-NO 67 13,2 C 15,2 C
20.06.2012 18:46 15,0 C 87 % 1016,4 hPa 0,0 l/m 10,4 km/h (2 Bft) O-SO 112 12,9 C 15,0 C
20.06.2012 18:51 14,9 C 88 % 1016,6 hPa 0,0 l/m 4,7 km/h (1 Bft) O 90 12,9 C 14,9 C
20.06.2012 18:56 14,9 C 88 % 1016,5 hPa 0,0 l/m 5,8 km/h (2 Bft) O-NO 67 12,9 C 14,9 C
20.06.2012 19:01 14,9 C 88 % 1016,6 hPa 0,0 l/m 7,2 km/h (2 Bft) O-NO 67 12,9 C 14,9 C
20.06.2012 19:06 14,9 C 88 % 1016,5 hPa 0,0 l/m 6,1 km/h (2 Bft) O-NO 67 12,9 C 14,9 C
20.06.2012 19:11 14,9 C 89 % 1016,6 hPa 0,0 l/m 6,1 km/h (2 Bft) O-NO 67 13,1 C 14,9 C
20.06.2012 19:16 14,9 C 89 % 1016,5 hPa 0,0 l/m 10,8 km/h (2 Bft) O 90 13,1 C 14,9 C
20.06.2012 19:21 14,9 C 89 % 1016,4 hPa 0,0 l/m 6,1 km/h (2 Bft) O-NO 67 13,1 C 14,9 C
20.06.2012 19:26 14,9 C 89 % 1016,3 hPa 0,0 l/m 3,6 km/h (1 Bft) NO 45 13,1 C 14,9 C
20.06.2012 19:31 14,9 C 90 % 1016,3 hPa 0,0 l/m 5,8 km/h (2 Bft) O-NO 67 13,3 C 14,9 C
20.06.2012 19:36 14,9 C 90 % 1016,3 hPa 0,0 l/m 4,7 km/h (1 Bft) O-NO 67 13,3 C 14,9 C
20.06.2012 19:41 14,9 C 90 % 1016,3 hPa 0,0 l/m 9,7 km/h (2 Bft) O 90 13,3 C 14,9 C
20.06.2012 19:46 14,9 C 90 % 1016,4 hPa 0,5 l/m 4,0 km/h (1 Bft) O 90 13,3 C 14,9 C
20.06.2012 19:51 14,9 C 90 % 1016,3 hPa 0,0 l/m 8,6 km/h (2 Bft) O 90 13,3 C 14,9 C
20.06.2012 19:56 14,9 C 90 % 1016,3 hPa 0,0 l/m 6,1 km/h (2 Bft) O-NO 67 13,3 C 14,9 C
20.06.2012 20:01 14,9 C 90 % 1016,3 hPa 0,0 l/m 2,2 km/h (1 Bft) O 90 13,3 C 14,9 C
20.06.2012 20:06 14,9 C 90 % 1016,4 hPa 0,0 l/m 6,5 km/h (2 Bft) NO 45 13,3 C 14,9 C
20.06.2012 20:11 14,9 C 90 % 1016,2 hPa 0,0 l/m 5,4 km/h (1 Bft) NO 45 13,3 C 14,9 C
20.06.2012 20:16 14,9 C 90 % 1016,5 hPa 0,0 l/m 4,7 km/h (1 Bft) O-SO 112 13,3 C 14,9 C
20.06.2012 20:21 14,9 C 90 % 1016,4 hPa 0,0 l/m 5,4 km/h (1 Bft) O-NO 67 13,3 C 14,9 C
20.06.2012 20:26 14,9 C 90 % 1016,4 hPa 0,0 l/m 8,3 km/h (2 Bft) O-NO 67 13,3 C 14,9 C
20.06.2012 20:31 14,9 C 90 % 1016,4 hPa 0,0 l/m 4,3 km/h (1 Bft) O 90 13,3 C 14,9 C
20.06.2012 20:36 14,9 C 90 % 1016,4 hPa 0,0 l/m 10,1 km/h (2 Bft) O 90 13,3 C 14,9 C
20.06.2012 20:41 14,9 C 90 % 1016,3 hPa 0,0 l/m 4,0 km/h (1 Bft) O-NO 67 13,3 C 14,9 C
20.06.2012 20:46 14,9 C 90 % 1016,2 hPa 0,0 l/m 9,7 km/h (2 Bft) O-NO 67 13,3 C 14,9 C
20.06.2012 20:51 14,9 C 90 % 1016,3 hPa 0,0 l/m 4,7 km/h (1 Bft) O-NO 67 13,3 C 14,9 C
20.06.2012 20:56 14,9 C 90 % 1016,4 hPa 0,0 l/m 7,2 km/h (2 Bft) O-NO 67 13,3 C 14,9 C
20.06.2012 21:01 14,9 C 90 % 1016,3 hPa 0,0 l/m 5,0 km/h (1 Bft) O 90 13,3 C 14,9 C
20.06.2012 21:06 14,9 C 90 % 1016,3 hPa 0,0 l/m 5,4 km/h (1 Bft) O-NO 67 13,3 C 14,9 C
20.06.2012 21:11 14,9 C 90 % 1016,2 hPa 0,0 l/m 4,0 km/h (1 Bft) NO 45 13,3 C 14,9 C
20.06.2012 21:16 14,9 C 90 % 1016,3 hPa 0,0 l/m 6,8 km/h (2 Bft) O-SO 112 13,3 C 14,9 C
20.06.2012 21:21 14,9 C 90 % 1016,3 hPa 0,0 l/m 0,0 km/h (0 Bft) O 90 13,3 C 14,9 C
20.06.2012 21:26 14,9 C 90 % 1016,1 hPa 0,0 l/m 4,0 km/h (1 Bft) NO 45 13,3 C 14,9 C
20.06.2012 21:31 14,9 C 90 % 1016,2 hPa 0,0 l/m 4,7 km/h (1 Bft) O-NO 67 13,3 C 14,9 C
20.06.2012 21:36 14,9 C 90 % 1016,1 hPa 0,0 l/m 11,5 km/h (2 Bft) O 90 13,3 C 14,9 C
20.06.2012 21:41 14,9 C 90 % 1016,3 hPa 0,0 l/m 11,2 km/h (2 Bft) O 90 13,3 C 14,9 C
20.06.2012 21:46 14,9 C 90 % 1016,3 hPa 0,0 l/m 9,4 km/h (2 Bft) O-NO 67 13,3 C 14,9 C
20.06.2012 21:51 14,9 C 90 % 1016,1 hPa 0,0 l/m 16,9 km/h (3 Bft) O 90 13,3 C 14,9 C
20.06.2012 21:56 14,9 C 90 % 1016,3 hPa 0,0 l/m 9,4 km/h (2 Bft) O-NO 67 13,3 C 14,9 C
20.06.2012 22:01 14,8 C 90 % 1016,3 hPa 0,0 l/m 8,3 km/h (2 Bft) O-NO 67 13,2 C 14,8 C
20.06.2012 22:06 14,8 C 90 % 1016,3 hPa 0,0 l/m 5,8 km/h (2 Bft) NO 45 13,2 C 14,8 C
20.06.2012 22:11 14,8 C 90 % 1016,4 hPa 0,0 l/m 5,8 km/h (2 Bft) O-NO 67 13,2 C 14,8 C
20.06.2012 22:16 14,8 C 90 % 1016,3 hPa 0,0 l/m 9,4 km/h (2 Bft) O-NO 67 13,2 C 14,8 C
20.06.2012 22:21 14,7 C 90 % 1016,4 hPa 0,0 l/m 16,9 km/h (3 Bft) O 90 13,1 C 14,7 C
20.06.2012 22:26 14,6 C 90 % 1016,4 hPa 0,0 l/m 7,9 km/h (2 Bft) O-NO 67 13,0 C 14,6 C
20.06.2012 22:31 14,6 C 90 % 1016,3 hPa 0,0 l/m 5,4 km/h (1 Bft) O 90 13,0 C 14,6 C
20.06.2012 22:36 14,6 C 90 % 1016,1 hPa 0,0 l/m 8,6 km/h (2 Bft) O-NO 67 13,0 C 14,6 C
20.06.2012 22:41 14,5 C 89 % 1016,2 hPa 0,0 l/m 16,6 km/h (3 Bft) O 90 12,7 C 14,5 C
20.06.2012 22:46 14,5 C 89 % 1016,1 hPa 0,0 l/m 7,6 km/h (2 Bft) O 90 12,7 C 14,5 C
20.06.2012 22:51 14,5 C 89 % 1015,9 hPa 0,0 l/m 3,6 km/h (1 Bft) O 90 12,7 C 14,5 C
20.06.2012 22:56 14,4 C 89 % 1016,1 hPa 0,0 l/m 3,6 km/h (1 Bft) O-NO 67 12,6 C 14,4 C
20.06.2012 23:01 14,4 C 90 % 1016,1 hPa 0,0 l/m 5,4 km/h (1 Bft) O-NO 67 12,8 C 14,4 C
20.06.2012 23:06 14,4 C 90 % 1016,0 hPa 0,0 l/m 7,6 km/h (2 Bft) O-NO 67 12,8 C 14,4 C
20.06.2012 23:11 14,4 C 90 % 1016,1 hPa 0,0 l/m 4,7 km/h (1 Bft) O 90 12,8 C 14,4 C
20.06.2012 23:16 14,4 C 89 % 1016,3 hPa 0,0 l/m 5,4 km/h (1 Bft) O-SO 112 12,6 C 14,4 C
20.06.2012 23:21 14,5 C 89 % 1016,3 hPa 0,0 l/m 5,4 km/h (1 Bft) NO 45 12,7 C 14,5 C
20.06.2012 23:26 14,5 C 89 % 1016,3 hPa 0,0 l/m 5,0 km/h (1 Bft) O-NO 67 12,7 C 14,5 C
20.06.2012 23:31 14,5 C 89 % 1016,3 hPa 0,0 l/m 4,3 km/h (1 Bft) O 90 12,7 C 14,5 C
20.06.2012 23:36 14,5 C 89 % 1016,4 hPa 0,0 l/m 9,7 km/h (2 Bft) O 90 12,7 C 14,5 C
20.06.2012 23:41 14,5 C 89 % 1016,3 hPa 0,0 l/m 5,4 km/h (1 Bft) O 90 12,7 C 14,5 C
20.06.2012 23:46 14,5 C 89 % 1016,3 hPa 0,0 l/m 7,2 km/h (2 Bft) O-NO 67 12,7 C 14,5 C
20.06.2012 23:51 14,5 C 89 % 1016,3 hPa 0,0 l/m 2,2 km/h (1 Bft) O-NO 67 12,7 C 14,5 C
20.06.2012 23:56 14,5 C 89 % 1016,4 hPa 0,0 l/m 5,4 km/h (1 Bft) O-NO 67 12,7 C 14,5 C
_ Min-Zeit 22:56 00:01 22:51 - 00:11 - - 22:56 22:56
Minimum _ 14,4 C 71 % 1015,9 hPa - 0,0 km/h (0 Bft) - - 12,6 C 14,4 C
_ Max-Zeit 00:01 19:31 00:31 07:06 18:41 - - 14:06 00:01
Maximum _ 18,2 C 90 % 1019,5 hPa 0,5 l/m 19,4 km/h
O-NO (3 Bft)
- - 14,4 C 18,2 C
Durchschnitt _ 15,9 C 86 % 1017,2 hPa #9,8 l/m 6,7 km/h (2 Bft) O-NO - 13,6 C 15,9 C
(c) by David Heller